Terminal Aerodrome Forecast
Issued by NWS

Home | Current Version | Previous Version | Text Only | Print | Product List | Glossary On
Versions: 1 2 3 4 5 6 7 8 9 10 11 12 13 14
000
FTUS46 KMFR 251100
TAFLMT
TAF
KLMT 251139Z 2512/2612 17025G35KT P6SM BKN050
     FM251700 19032G45KT P6SM BKN050 OVC100
     FM260100 22030G40KT P6SM -SHRA OVC050
     FM260400 26015G25KT P6SM -SHRA OVC040=

USA.gov is the U.S. government's official web portal to all federal, state and local government web resources and services.